sensor_id;sensor_type;location;lat;lon;timestamp;temperature;humidity
68098;DHT22;54886;47.036;15.466;2023-05-07T00:01:03;16.89;76.38
68098;DHT22;54886;47.036;15.466;2023-05-07T00:03:31;16.85;76.82
68098;DHT22;54886;47.036;15.466;2023-05-07T00:05:56;16.80;76.39
68098;DHT22;54886;47.036;15.466;2023-05-07T00:08:22;16.79;76.89
68098;DHT22;54886;47.036;15.466;2023-05-07T00:10:47;16.80;76.75
68098;DHT22;54886;47.036;15.466;2023-05-07T00:13:12;16.83;74.79
68098;DHT22;54886;47.036;15.466;2023-05-07T00:15:38;16.80;76.71
68098;DHT22;54886;47.036;15.466;2023-05-07T00:18:03;16.82;76.25
68098;DHT22;54886;47.036;15.466;2023-05-07T00:20:29;16.80;76.41
68098;DHT22;54886;47.036;15.466;2023-05-07T00:22:54;16.78;75.28
68098;DHT22;54886;47.036;15.466;2023-05-07T00:25:20;16.80;74.57
68098;DHT22;54886;47.036;15.466;2023-05-07T00:27:45;16.79;76.32
68098;DHT22;54886;47.036;15.466;2023-05-07T00:30:11;16.80;74.24
68098;DHT22;54886;47.036;15.466;2023-05-07T00:32:37;16.86;73.05
68098;DHT22;54886;47.036;15.466;2023-05-07T00:35:04;16.87;74.93
68098;DHT22;54886;47.036;15.466;2023-05-07T00:37:30;16.85;75.48
68098;DHT22;54886;47.036;15.466;2023-05-07T00:39:55;16.83;75.14
68098;DHT22;54886;47.036;15.466;2023-05-07T00:42:21;16.83;75.41
68098;DHT22;54886;47.036;15.466;2023-05-07T00:44:46;16.80;76.61
68098;DHT22;54886;47.036;15.466;2023-05-07T00:47:11;16.76;77.41
68098;DHT22;54886;47.036;15.466;2023-05-07T00:49:39;16.68;78.36
68098;DHT22;54886;47.036;15.466;2023-05-07T00:52:07;16.65;78.55
68098;DHT22;54886;47.036;15.466;2023-05-07T00:54:34;16.67;78.22
68098;DHT22;54886;47.036;15.466;2023-05-07T00:57:02;16.68;76.73
68098;DHT22;54886;47.036;15.466;2023-05-07T00:59:28;16.69;76.00
68098;DHT22;54886;47.036;15.466;2023-05-07T01:01:53;16.65;77.99
68098;DHT22;54886;47.036;15.466;2023-05-07T01:04:19;16.61;77.92
68098;DHT22;54886;47.036;15.466;2023-05-07T01:06:45;16.61;77.22
68098;DHT22;54886;47.036;15.466;2023-05-07T01:09:12;16.61;76.78
68098;DHT22;54886;47.036;15.466;2023-05-07T01:11:38;16.59;75.01
68098;DHT22;54886;47.036;15.466;2023-05-07T01:14:05;16.61;74.93
68098;DHT22;54886;47.036;15.466;2023-05-07T01:16:30;16.55;76.27
68098;DHT22;54886;47.036;15.466;2023-05-07T01:18:56;16.47;74.87
68098;DHT22;54886;47.036;15.466;2023-05-07T01:21:25;16.45;75.73
68098;DHT22;54886;47.036;15.466;2023-05-07T01:23:52;16.32;77.05
68098;DHT22;54886;47.036;15.466;2023-05-07T01:26:17;16.27;76.55
68098;DHT22;54886;47.036;15.466;2023-05-07T01:28:45;16.27;75.91
68098;DHT22;54886;47.036;15.466;2023-05-07T01:31:12;16.27;76.01
68098;DHT22;54886;47.036;15.466;2023-05-07T01:33:40;16.24;76.38
68098;DHT22;54886;47.036;15.466;2023-05-07T01:36:07;16.25;74.06
68098;DHT22;54886;47.036;15.466;2023-05-07T01:38:35;16.17;74.76
68098;DHT22;54886;47.036;15.466;2023-05-07T01:41:02;16.18;74.73
68098;DHT22;54886;47.036;15.466;2023-05-07T01:43:28;16.13;76.28
68098;DHT22;54886;47.036;15.466;2023-05-07T01:45:55;16.13;75.92
68098;DHT22;54886;47.036;15.466;2023-05-07T01:48:21;16.12;75.24
68098;DHT22;54886;47.036;15.466;2023-05-07T01:50:47;16.09;75.64
68098;DHT22;54886;47.036;15.466;2023-05-07T01:53:13;16.00;74.08
68098;DHT22;54886;47.036;15.466;2023-05-07T01:55:38;15.92;75.99
68098;DHT22;54886;47.036;15.466;2023-05-07T01:58:05;15.86;75.87
68098;DHT22;54886;47.036;15.466;2023-05-07T02:00:31;15.93;74.30
68098;DHT22;54886;47.036;15.466;2023-05-07T02:02:57;15.85;75.46
68098;DHT22;54886;47.036;15.466;2023-05-07T02:05:22;15.78;74.65
68098;DHT22;54886;47.036;15.466;2023-05-07T02:07:47;15.75;74.75
68098;DHT22;54886;47.036;15.466;2023-05-07T02:10:13;15.75;74.78
68098;DHT22;54886;47.036;15.466;2023-05-07T02:12:38;15.72;74.39
68098;DHT22;54886;47.036;15.466;2023-05-07T02:15:04;15.63;74.38
68098;DHT22;54886;47.036;15.466;2023-05-07T02:17:30;15.58;75.44
68098;DHT22;54886;47.036;15.466;2023-05-07T02:19:58;15.50;74.71
68098;DHT22;54886;47.036;15.466;2023-05-07T02:22:23;15.48;74.87
68098;DHT22;54886;47.036;15.466;2023-05-07T02:24:49;15.50;74.94
68098;DHT22;54886;47.036;15.466;2023-05-07T02:27:14;15.41;75.63
68098;DHT22;54886;47.036;15.466;2023-05-07T02:29:40;15.42;75.54
68098;DHT22;54886;47.036;15.466;2023-05-07T02:32:05;15.41;75.03
68098;DHT22;54886;47.036;15.466;2023-05-07T02:34:31;15.34;75.22
68098;DHT22;54886;47.036;15.466;2023-05-07T02:36:56;15.27;76.06
68098;DHT22;54886;47.036;15.466;2023-05-07T02:39:22;15.28;76.24
68098;DHT22;54886;47.036;15.466;2023-05-07T02:41:47;15.34;75.22
68098;DHT22;54886;47.036;15.466;2023-05-07T02:44:13;15.40;75.90
68098;DHT22;54886;47.036;15.466;2023-05-07T02:46:38;15.45;75.54
68098;DHT22;54886;47.036;15.466;2023-05-07T02:49:03;15.42;75.54
68098;DHT22;54886;47.036;15.466;2023-05-07T02:51:30;15.37;75.34
68098;DHT22;54886;47.036;15.466;2023-05-07T02:53:55;15.26;76.71
68098;DHT22;54886;47.036;15.466;2023-05-07T02:56:21;15.24;75.40
68098;DHT22;54886;47.036;15.466;2023-05-07T02:58:46;15.27;75.54
68098;DHT22;54886;47.036;15.466;2023-05-07T03:01:11;15.31;75.03
68098;DHT22;54886;47.036;15.466;2023-05-07T03:03:39;15.27;74.28
68098;DHT22;54886;47.036;15.466;2023-05-07T03:06:05;15.26;74.09
68098;DHT22;54886;47.036;15.466;2023-05-07T03:08:30;15.26;74.29
68098;DHT22;54886;47.036;15.466;2023-05-07T03:10:56;15.19;73.93
68098;DHT22;54886;47.036;15.466;2023-05-07T03:13:21;15.08;76.01
68098;DHT22;54886;47.036;15.466;2023-05-07T03:15:47;15.04;75.55
68098;DHT22;54886;47.036;15.466;2023-05-07T03:18:12;14.97;76.43
68098;DHT22;54886;47.036;15.466;2023-05-07T03:20:37;14.90;76.23
68098;DHT22;54886;47.036;15.466;2023-05-07T03:23:03;14.76;76.81
68098;DHT22;54886;47.036;15.466;2023-05-07T03:25:28;14.72;76.83
68098;DHT22;54886;47.036;15.466;2023-05-07T03:27:55;14.65;76.58
68098;DHT22;54886;47.036;15.466;2023-05-07T03:30:21;14.65;77.03
68098;DHT22;54886;47.036;15.466;2023-05-07T03:32:46;14.67;77.19
68098;DHT22;54886;47.036;15.466;2023-05-07T03:35:12;14.71;77.78
68098;DHT22;54886;47.036;15.466;2023-05-07T03:37:38;14.79;75.26
68098;DHT22;54886;47.036;15.466;2023-05-07T03:40:03;14.75;76.42
68098;DHT22;54886;47.036;15.466;2023-05-07T03:42:29;14.76;74.48
68098;DHT22;54886;47.036;15.466;2023-05-07T03:44:55;14.58;78.11
68098;DHT22;54886;47.036;15.466;2023-05-07T03:47:20;14.57;76.20
68098;DHT22;54886;47.036;15.466;2023-05-07T03:49:46;14.64;76.71
68098;DHT22;54886;47.036;15.466;2023-05-07T03:52:11;14.59;76.68
68098;DHT22;54886;47.036;15.466;2023-05-07T03:54:37;14.52;78.83
68098;DHT22;54886;47.036;15.466;2023-05-07T03:57:02;14.52;78.94
68098;DHT22;54886;47.036;15.466;2023-05-07T03:59:27;14.64;78.22
68098;DHT22;54886;47.036;15.466;2023-05-07T04:01:53;14.75;78.17
68098;DHT22;54886;47.036;15.466;2023-05-07T04:04:18;14.99;76.53
68098;DHT22;54886;47.036;15.466;2023-05-07T04:06:44;15.13;75.68
68098;DHT22;54886;47.036;15.466;2023-05-07T04:09:09;15.19;74.87
68098;DHT22;54886;47.036;15.466;2023-05-07T04:11:35;15.08;75.35
68098;DHT22;54886;47.036;15.466;2023-05-07T04:14:01;14.97;75.89
68098;DHT22;54886;47.036;15.466;2023-05-07T04:16:26;14.78;78.15
68098;DHT22;54886;47.036;15.466;2023-05-07T04:18:52;14.82;76.55
68098;DHT22;54886;47.036;15.466;2023-05-07T04:21:18;14.72;77.16
68098;DHT22;54886;47.036;15.466;2023-05-07T04:23:45;14.72;76.80
68098;DHT22;54886;47.036;15.466;2023-05-07T04:26:11;14.65;77.82
68098;DHT22;54886;47.036;15.466;2023-05-07T04:28:36;14.68;77.58
68098;DHT22;54886;47.036;15.466;2023-05-07T04:31:02;14.65;77.86
68098;DHT22;54886;47.036;15.466;2023-05-07T04:33:27;14.64;77.71
68098;DHT22;54886;47.036;15.466;2023-05-07T04:35:53;14.61;77.39
68098;DHT22;54886;47.036;15.466;2023-05-07T04:38:18;14.67;76.78
68098;DHT22;54886;47.036;15.466;2023-05-07T04:40:44;14.73;76.69
68098;DHT22;54886;47.036;15.466;2023-05-07T04:43:09;14.73;77.03
68098;DHT22;54886;47.036;15.466;2023-05-07T04:45:36;14.73;76.55
68098;DHT22;54886;47.036;15.466;2023-05-07T04:48:01;14.72;77.03
68098;DHT22;54886;47.036;15.466;2023-05-07T04:50:27;14.72;77.22
68098;DHT22;54886;47.036;15.466;2023-05-07T04:52:52;14.69;76.95
68098;DHT22;54886;47.036;15.466;2023-05-07T04:55:18;14.73;76.90
68098;DHT22;54886;47.036;15.466;2023-05-07T04:57:43;14.73;77.04
68098;DHT22;54886;47.036;15.466;2023-05-07T05:00:09;14.73;77.31
68098;DHT22;54886;47.036;15.466;2023-05-07T05:02:35;14.72;78.14
68098;DHT22;54886;47.036;15.466;2023-05-07T05:05:01;14.78;77.38
68098;DHT22;54886;47.036;15.466;2023-05-07T05:07:29;14.79;77.15
68098;DHT22;54886;47.036;15.466;2023-05-07T05:09:54;14.80;77.44
68098;DHT22;54886;47.036;15.466;2023-05-07T05:12:20;14.86;76.71
68098;DHT22;54886;47.036;15.466;2023-05-07T05:14:46;14.83;77.37
68098;DHT22;54886;47.036;15.466;2023-05-07T05:17:12;14.85;77.81
68098;DHT22;54886;47.036;15.466;2023-05-07T05:19:37;14.90;76.64
68098;DHT22;54886;47.036;15.466;2023-05-07T05:22:03;14.89;76.79
68098;DHT22;54886;47.036;15.466;2023-05-07T05:24:29;14.95;76.50
68098;DHT22;54886;47.036;15.466;2023-05-07T05:26:55;14.97;76.95
68098;DHT22;54886;47.036;15.466;2023-05-07T05:29:20;15.00;76.18
68098;DHT22;54886;47.036;15.466;2023-05-07T05:31:46;14.97;76.54
68098;DHT22;54886;47.036;15.466;2023-05-07T05:34:11;15.02;77.18
68098;DHT22;54886;47.036;15.466;2023-05-07T05:36:36;15.03;76.65
68098;DHT22;54886;47.036;15.466;2023-05-07T05:39:02;15.04;76.11
68098;DHT22;54886;47.036;15.466;2023-05-07T05:41:27;15.04;76.85
68098;DHT22;54886;47.036;15.466;2023-05-07T05:43:53;15.07;77.03
68098;DHT22;54886;47.036;15.466;2023-05-07T05:46:18;15.08;76.58
68098;DHT22;54886;47.036;15.466;2023-05-07T05:48:44;15.08;76.59
68098;DHT22;54886;47.036;15.466;2023-05-07T05:51:09;15.13;76.89
68098;DHT22;54886;47.036;15.466;2023-05-07T05:53:34;15.10;76.86
68098;DHT22;54886;47.036;15.466;2023-05-07T05:56:00;15.13;76.13
68098;DHT22;54886;47.036;15.466;2023-05-07T05:58:25;15.19;76.32
68098;DHT22;54886;47.036;15.466;2023-05-07T06:00:51;15.20;76.57
68098;DHT22;54886;47.036;15.466;2023-05-07T06:03:17;15.23;76.19
68098;DHT22;54886;47.036;15.466;2023-05-07T06:05:43;15.30;76.07
68098;DHT22;54886;47.036;15.466;2023-05-07T06:08:08;15.35;76.10
68098;DHT22;54886;47.036;15.466;2023-05-07T06:10:36;15.45;76.06
68098;DHT22;54886;47.036;15.466;2023-05-07T06:13:01;15.47;76.09
68098;DHT22;54886;47.036;15.466;2023-05-07T06:15:27;15.55;75.62
68098;DHT22;54886;47.036;15.466;2023-05-07T06:17:52;15.58;75.64
68098;DHT22;54886;47.036;15.466;2023-05-07T06:20:17;15.63;74.70
68098;DHT22;54886;47.036;15.466;2023-05-07T06:22:43;15.69;74.62
68098;DHT22;54886;47.036;15.466;2023-05-07T06:25:08;15.75;75.57
68098;DHT22;54886;47.036;15.466;2023-05-07T06:27:34;15.79;76.75
68098;DHT22;54886;47.036;15.466;2023-05-07T06:30:00;15.86;76.00
68098;DHT22;54886;47.036;15.466;2023-05-07T06:32:25;15.92;75.86
68098;DHT22;54886;47.036;15.466;2023-05-07T06:34:51;15.97;74.67
68098;DHT22;54886;47.036;15.466;2023-05-07T06:37:16;16.03;76.50
68098;DHT22;54886;47.036;15.466;2023-05-07T06:39:41;16.10;75.26
68098;DHT22;54886;47.036;15.466;2023-05-07T06:42:07;16.16;72.98
68098;DHT22;54886;47.036;15.466;2023-05-07T06:44:32;16.18;76.43
68098;DHT22;54886;47.036;15.466;2023-05-07T06:46:58;16.25;74.72
68098;DHT22;54886;47.036;15.466;2023-05-07T06:49:23;16.34;74.73
68098;DHT22;54886;47.036;15.466;2023-05-07T06:51:49;16.37;72.49
68098;DHT22;54886;47.036;15.466;2023-05-07T06:54:14;16.47;76.13
68098;DHT22;54886;47.036;15.466;2023-05-07T06:56:40;16.54;75.70
68098;DHT22;54886;47.036;15.466;2023-05-07T06:59:06;16.64;75.00
68098;DHT22;54886;47.036;15.466;2023-05-07T07:01:31;16.69;73.81
68098;DHT22;54886;47.036;15.466;2023-05-07T07:03:57;16.78;73.55
68098;DHT22;54886;47.036;15.466;2023-05-07T07:06:22;16.90;74.68
68098;DHT22;54886;47.036;15.466;2023-05-07T07:08:47;17.04;74.08
68098;DHT22;54886;47.036;15.466;2023-05-07T07:11:13;17.10;73.00
68098;DHT22;54886;47.036;15.466;2023-05-07T07:13:38;17.19;72.22
68098;DHT22;54886;47.036;15.466;2023-05-07T07:16:05;17.23;72.13
68098;DHT22;54886;47.036;15.466;2023-05-07T07:18:30;17.28;72.47
68098;DHT22;54886;47.036;15.466;2023-05-07T07:20:56;17.38;71.80
68098;DHT22;54886;47.036;15.466;2023-05-07T07:23:21;17.44;71.90
68098;DHT22;54886;47.036;15.466;2023-05-07T07:25:47;17.51;72.58
68098;DHT22;54886;47.036;15.466;2023-05-07T07:28:12;17.58;72.91
68098;DHT22;54886;47.036;15.466;2023-05-07T07:30:39;17.67;72.13
68098;DHT22;54886;47.036;15.466;2023-05-07T07:33:04;17.71;72.05
68098;DHT22;54886;47.036;15.466;2023-05-07T07:35:31;17.75;71.89
68098;DHT22;54886;47.036;15.466;2023-05-07T07:37:56;17.79;71.78
68098;DHT22;54886;47.036;15.466;2023-05-07T07:40:22;17.79;71.62
68098;DHT22;54886;47.036;15.466;2023-05-07T07:42:47;17.83;71.57
68098;DHT22;54886;47.036;15.466;2023-05-07T07:45:13;17.86;71.93
68098;DHT22;54886;47.036;15.466;2023-05-07T07:47:39;17.92;71.39
68098;DHT22;54886;47.036;15.466;2023-05-07T07:50:06;17.99;72.18
68098;DHT22;54886;47.036;15.466;2023-05-07T07:52:32;18.00;71.18
68098;DHT22;54886;47.036;15.466;2023-05-07T07:54:57;18.07;70.85
68098;DHT22;54886;47.036;15.466;2023-05-07T07:57:23;18.10;70.90
68098;DHT22;54886;47.036;15.466;2023-05-07T07:59:49;18.20;71.42
68098;DHT22;54886;47.036;15.466;2023-05-07T08:02:15;18.27;71.29
68098;DHT22;54886;47.036;15.466;2023-05-07T08:04:40;18.36;72.38
68098;DHT22;54886;47.036;15.466;2023-05-07T08:07:08;18.41;71.22
68098;DHT22;54886;47.036;15.466;2023-05-07T08:09:34;18.47;71.25
68098;DHT22;54886;47.036;15.466;2023-05-07T08:11:59;18.50;70.32
68098;DHT22;54886;47.036;15.466;2023-05-07T08:14:26;18.54;70.19
68098;DHT22;54886;47.036;15.466;2023-05-07T08:16:53;18.55;69.73
68098;DHT22;54886;47.036;15.466;2023-05-07T08:19:19;18.65;70.20
68098;DHT22;54886;47.036;15.466;2023-05-07T08:21:45;18.69;69.58
68098;DHT22;54886;47.036;15.466;2023-05-07T08:24:12;18.65;67.67
68098;DHT22;54886;47.036;15.466;2023-05-07T08:26:38;18.68;68.47
68098;DHT22;54886;47.036;15.466;2023-05-07T08:29:04;18.79;69.46
68098;DHT22;54886;47.036;15.466;2023-05-07T08:31:29;18.84;69.18
68098;DHT22;54886;47.036;15.466;2023-05-07T08:33:56;18.85;69.64
68098;DHT22;54886;47.036;15.466;2023-05-07T08:36:22;18.78;69.06
68098;DHT22;54886;47.036;15.466;2023-05-07T08:38:47;18.73;69.03
68098;DHT22;54886;47.036;15.466;2023-05-07T08:41:12;18.82;69.21
68098;DHT22;54886;47.036;15.466;2023-05-07T08:43:40;18.79;69.15
68098;DHT22;54886;47.036;15.466;2023-05-07T08:46:08;18.81;69.47
68098;DHT22;54886;47.036;15.466;2023-05-07T08:48:34;18.91;69.24
68098;DHT22;54886;47.036;15.466;2023-05-07T08:51:00;18.84;68.74
68098;DHT22;54886;47.036;15.466;2023-05-07T08:53:26;18.92;69.16
68098;DHT22;54886;47.036;15.466;2023-05-07T08:55:52;19.06;69.83
68098;DHT22;54886;47.036;15.466;2023-05-07T08:58:18;19.06;69.18
68098;DHT22;54886;47.036;15.466;2023-05-07T09:00:44;19.00;67.93
68098;DHT22;54886;47.036;15.466;2023-05-07T09:03:09;19.04;68.50
68098;DHT22;54886;47.036;15.466;2023-05-07T09:05:38;19.10;68.68
68098;DHT22;54886;47.036;15.466;2023-05-07T09:08:06;19.13;68.31
68098;DHT22;54886;47.036;15.466;2023-05-07T09:10:34;19.16;67.91
68098;DHT22;54886;47.036;15.466;2023-05-07T09:12:59;19.10;68.11
68098;DHT22;54886;47.036;15.466;2023-05-07T09:15:26;19.17;68.08
68098;DHT22;54886;47.036;15.466;2023-05-07T09:17:52;19.24;67.29
68098;DHT22;54886;47.036;15.466;2023-05-07T09:20:18;19.20;67.52
68098;DHT22;54886;47.036;15.466;2023-05-07T09:22:43;19.28;67.99
68098;DHT22;54886;47.036;15.466;2023-05-07T09:25:09;19.41;67.99
68098;DHT22;54886;47.036;15.466;2023-05-07T09:27:35;19.51;67.01
68098;DHT22;54886;47.036;15.466;2023-05-07T09:30:07;19.61;67.50
68098;DHT22;54886;47.036;15.466;2023-05-07T09:32:36;19.61;66.88
68098;DHT22;54886;47.036;15.466;2023-05-07T09:35:04;19.61;65.95
68098;DHT22;54886;47.036;15.466;2023-05-07T09:37:30;19.62;65.79
68098;DHT22;54886;47.036;15.466;2023-05-07T09:39:56;19.78;66.98
68098;DHT22;54886;47.036;15.466;2023-05-07T09:42:24;19.93;67.18
68098;DHT22;54886;47.036;15.466;2023-05-07T09:44:52;19.96;65.66
68098;DHT22;54886;47.036;15.466;2023-05-07T09:47:19;19.96;64.65
68098;DHT22;54886;47.036;15.466;2023-05-07T09:49:47;20.00;64.94
68098;DHT22;54886;47.036;15.466;2023-05-07T09:52:13;20.12;65.59
68098;DHT22;54886;47.036;15.466;2023-05-07T09:54:40;20.12;65.01
68098;DHT22;54886;47.036;15.466;2023-05-07T09:57:07;20.24;63.97
68098;DHT22;54886;47.036;15.466;2023-05-07T09:59:34;20.22;63.45
68098;DHT22;54886;47.036;15.466;2023-05-07T10:02:01;20.24;64.43
68098;DHT22;54886;47.036;15.466;2023-05-07T10:04:26;20.29;62.58
68098;DHT22;54886;47.036;15.466;2023-05-07T10:06:52;20.33;62.60
68098;DHT22;54886;47.036;15.466;2023-05-07T10:09:19;20.34;61.24
68098;DHT22;54886;47.036;15.466;2023-05-07T10:11:45;20.39;64.24
68098;DHT22;54886;47.036;15.466;2023-05-07T10:14:11;20.44;63.74
68098;DHT22;54886;47.036;15.466;2023-05-07T10:16:37;20.58;65.30
68098;DHT22;54886;47.036;15.466;2023-05-07T10:19:06;20.61;63.43
68098;DHT22;54886;47.036;15.466;2023-05-07T10:21:40;20.57;62.98
68098;DHT22;54886;47.036;15.466;2023-05-07T10:24:20;20.59;63.75
68098;DHT22;54886;47.036;15.466;2023-05-07T10:26:49;20.65;63.88
68098;DHT22;54886;47.036;15.466;2023-05-07T10:29:21;20.72;62.28
68098;DHT22;54886;47.036;15.466;2023-05-07T10:31:59;20.78;64.12
68098;DHT22;54886;47.036;15.466;2023-05-07T10:34:36;20.84;63.27
68098;DHT22;54886;47.036;15.466;2023-05-07T10:37:03;20.85;63.40
68098;DHT22;54886;47.036;15.466;2023-05-07T10:39:29;20.85;62.20
68098;DHT22;54886;47.036;15.466;2023-05-07T10:41:55;20.86;63.30
68098;DHT22;54886;47.036;15.466;2023-05-07T10:44:29;20.79;63.08
68098;DHT22;54886;47.036;15.466;2023-05-07T10:47:12;20.72;61.95
68098;DHT22;54886;47.036;15.466;2023-05-07T10:52:17;20.79;62.80
68098;DHT22;54886;47.036;15.466;2023-05-07T10:54:44;20.91;62.71
68098;DHT22;54886;47.036;15.466;2023-05-07T10:59:57;20.95;62.47
68098;DHT22;54886;47.036;15.466;2023-05-07T11:02:23;20.93;62.14
68098;DHT22;54886;47.036;15.466;2023-05-07T11:05:20;20.82;61.85
68098;DHT22;54886;47.036;15.466;2023-05-07T11:07:59;20.79;62.02
68098;DHT22;54886;47.036;15.466;2023-05-07T11:10:56;20.95;61.85
68098;DHT22;54886;47.036;15.466;2023-05-07T11:13:48;21.03;62.06
68098;DHT22;54886;47.036;15.466;2023-05-07T11:16:18;20.99;61.76
68098;DHT22;54886;47.036;15.466;2023-05-07T11:18:54;21.05;61.97
68098;DHT22;54886;47.036;15.466;2023-05-07T11:21:40;21.10;62.08
68098;DHT22;54886;47.036;15.466;2023-05-07T11:24:08;21.22;60.83
68098;DHT22;54886;47.036;15.466;2023-05-07T11:26:48;21.23;59.70
68098;DHT22;54886;47.036;15.466;2023-05-07T11:29:18;21.31;60.65
68098;DHT22;54886;47.036;15.466;2023-05-07T11:31:48;21.40;61.42
68098;DHT22;54886;47.036;15.466;2023-05-07T11:34:15;21.50;60.45
68098;DHT22;54886;47.036;15.466;2023-05-07T11:36:46;21.53;60.28
68098;DHT22;54886;47.036;15.466;2023-05-07T11:39:26;21.54;60.19
68098;DHT22;54886;47.036;15.466;2023-05-07T11:41:52;21.58;60.35
68098;DHT22;54886;47.036;15.466;2023-05-07T11:44:18;21.53;60.07
68098;DHT22;54886;47.036;15.466;2023-05-07T11:46:44;21.46;58.56
68098;DHT22;54886;47.036;15.466;2023-05-07T11:49:10;21.46;59.32
68098;DHT22;54886;47.036;15.466;2023-05-07T11:51:36;21.40;58.47
68098;DHT22;54886;47.036;15.466;2023-05-07T11:54:03;21.39;58.52
68098;DHT22;54886;47.036;15.466;2023-05-07T11:56:34;21.39;60.08
68098;DHT22;54886;47.036;15.466;2023-05-07T11:58:59;21.41;58.91
68098;DHT22;54886;47.036;15.466;2023-05-07T12:01:25;21.41;60.42
68098;DHT22;54886;47.036;15.466;2023-05-07T12:03:50;21.44;59.82
68098;DHT22;54886;47.036;15.466;2023-05-07T12:06:16;21.44;59.46
68098;DHT22;54886;47.036;15.466;2023-05-07T12:08:43;21.48;59.26
68098;DHT22;54886;47.036;15.466;2023-05-07T12:11:34;21.50;58.97
68098;DHT22;54886;47.036;15.466;2023-05-07T12:14:00;21.46;59.00
68098;DHT22;54886;47.036;15.466;2023-05-07T12:16:26;21.47;59.23
68098;DHT22;54886;47.036;15.466;2023-05-07T12:18:52;21.47;58.32
68098;DHT22;54886;47.036;15.466;2023-05-07T12:21:20;21.44;58.81
68098;DHT22;54886;47.036;15.466;2023-05-07T12:23:45;21.41;57.76
68098;DHT22;54886;47.036;15.466;2023-05-07T12:26:11;21.41;58.81
68098;DHT22;54886;47.036;15.466;2023-05-07T12:28:38;21.50;58.69
68098;DHT22;54886;47.036;15.466;2023-05-07T12:31:07;21.50;58.44
68098;DHT22;54886;47.036;15.466;2023-05-07T12:33:33;21.53;58.37
68098;DHT22;54886;47.036;15.466;2023-05-07T12:36:03;21.51;56.63
68098;DHT22;54886;47.036;15.466;2023-05-07T12:38:34;21.54;57.88
68098;DHT22;54886;47.036;15.466;2023-05-07T12:41:00;21.57;58.23
68098;DHT22;54886;47.036;15.466;2023-05-07T12:43:28;21.59;58.21
68098;DHT22;54886;47.036;15.466;2023-05-07T12:45:56;21.64;58.57
68098;DHT22;54886;47.036;15.466;2023-05-07T12:48:22;21.64;58.16
68098;DHT22;54886;47.036;15.466;2023-05-07T12:50:52;21.64;57.90
68098;DHT22;54886;47.036;15.466;2023-05-07T12:53:20;21.62;58.07
68098;DHT22;54886;47.036;15.466;2023-05-07T12:55:48;21.61;57.42
68098;DHT22;54886;47.036;15.466;2023-05-07T12:58:25;21.57;57.85
68098;DHT22;54886;47.036;15.466;2023-05-07T13:00:51;21.54;57.69
68098;DHT22;54886;47.036;15.466;2023-05-07T13:05:51;21.43;57.35
68098;DHT22;54886;47.036;15.466;2023-05-07T13:08:33;21.41;58.99
68098;DHT22;54886;47.036;15.466;2023-05-07T13:11:00;21.41;58.35
68098;DHT22;54886;47.036;15.466;2023-05-07T13:13:29;21.40;57.80
68098;DHT22;54886;47.036;15.466;2023-05-07T13:15:54;21.36;58.11
68098;DHT22;54886;47.036;15.466;2023-05-07T13:18:20;21.30;57.60
68098;DHT22;54886;47.036;15.466;2023-05-07T13:20:45;21.29;58.18
68098;DHT22;54886;47.036;15.466;2023-05-07T13:23:11;21.24;58.29
68098;DHT22;54886;47.036;15.466;2023-05-07T13:25:36;21.20;59.42
68098;DHT22;54886;47.036;15.466;2023-05-07T13:28:01;21.13;61.45
68098;DHT22;54886;47.036;15.466;2023-05-07T13:30:27;21.02;64.11
68098;DHT22;54886;47.036;15.466;2023-05-07T13:32:55;20.96;65.61
68098;DHT22;54886;47.036;15.466;2023-05-07T13:35:20;20.86;66.18
68098;DHT22;54886;47.036;15.466;2023-05-07T13:37:46;20.74;66.59
68098;DHT22;54886;47.036;15.466;2023-05-07T13:40:13;20.47;68.61
68098;DHT22;54886;47.036;15.466;2023-05-07T13:42:38;20.41;69.40
68098;DHT22;54886;47.036;15.466;2023-05-07T13:45:04;20.34;68.89
68098;DHT22;54886;47.036;15.466;2023-05-07T13:47:30;20.27;70.02
68098;DHT22;54886;47.036;15.466;2023-05-07T13:49:55;20.27;69.39
68098;DHT22;54886;47.036;15.466;2023-05-07T13:52:21;20.08;70.63
68098;DHT22;54886;47.036;15.466;2023-05-07T13:54:46;19.93;72.12
68098;DHT22;54886;47.036;15.466;2023-05-07T13:57:12;19.92;71.73
68098;DHT22;54886;47.036;15.466;2023-05-07T13:59:37;19.83;71.86
68098;DHT22;54886;47.036;15.466;2023-05-07T14:02:03;19.75;71.91
68098;DHT22;54886;47.036;15.466;2023-05-07T14:04:28;19.62;72.55
68098;DHT22;54886;47.036;15.466;2023-05-07T14:06:53;19.54;72.68
68098;DHT22;54886;47.036;15.466;2023-05-07T14:09:19;19.35;72.69
68098;DHT22;54886;47.036;15.466;2023-05-07T14:11:44;19.31;72.69
68098;DHT22;54886;47.036;15.466;2023-05-07T14:14:11;19.23;72.20
68098;DHT22;54886;47.036;15.466;2023-05-07T14:16:36;19.16;72.65
68098;DHT22;54886;47.036;15.466;2023-05-07T14:19:02;19.04;72.68
68098;DHT22;54886;47.036;15.466;2023-05-07T14:21:27;18.92;73.35
68098;DHT22;54886;47.036;15.466;2023-05-07T14:23:53;18.93;73.06
68098;DHT22;54886;47.036;15.466;2023-05-07T14:26:18;18.88;73.24
68098;DHT22;54886;47.036;15.466;2023-05-07T14:28:44;18.72;75.02
68098;DHT22;54886;47.036;15.466;2023-05-07T14:31:12;18.67;75.43
68098;DHT22;54886;47.036;15.466;2023-05-07T14:33:37;18.78;74.65
68098;DHT22;54886;47.036;15.466;2023-05-07T14:36:04;18.76;74.77
68098;DHT22;54886;47.036;15.466;2023-05-07T14:38:29;18.79;75.57
68098;DHT22;54886;47.036;15.466;2023-05-07T14:40:55;18.73;74.88
68098;DHT22;54886;47.036;15.466;2023-05-07T14:43:21;18.69;76.00
68098;DHT22;54886;47.036;15.466;2023-05-07T14:45:47;18.68;74.44
68098;DHT22;54886;47.036;15.466;2023-05-07T14:48:12;18.62;74.31
68098;DHT22;54886;47.036;15.466;2023-05-07T14:50:41;18.40;76.11
68098;DHT22;54886;47.036;15.466;2023-05-07T14:53:06;18.40;75.21
68098;DHT22;54886;47.036;15.466;2023-05-07T14:55:32;18.41;74.60
68098;DHT22;54886;47.036;15.466;2023-05-07T14:57:57;18.36;75.75
68098;DHT22;54886;47.036;15.466;2023-05-07T15:00:22;18.36;74.75
68098;DHT22;54886;47.036;15.466;2023-05-07T15:02:48;18.24;75.52
68098;DHT22;54886;47.036;15.466;2023-05-07T15:05:14;18.24;75.45
68098;DHT22;54886;47.036;15.466;2023-05-07T15:07:40;18.24;74.92
68098;DHT22;54886;47.036;15.466;2023-05-07T15:10:05;18.09;75.95
68098;DHT22;54886;47.036;15.466;2023-05-07T15:12:31;18.09;76.12
68098;DHT22;54886;47.036;15.466;2023-05-07T15:14:56;18.07;75.66
68098;DHT22;54886;47.036;15.466;2023-05-07T15:17:22;18.04;75.90
68098;DHT22;54886;47.036;15.466;2023-05-07T15:19:47;18.07;75.90